Flight ASX315X

  • Submitted By: Mark Lubuski
  • Departure Airport: Szczecin (EPSC)
  • Arrival Airport: Gdansk im. Lecha Walesy (EPGD)
  • Aircraft: ATR 72-500 (SP-RYD)
  • Flight Time: 00.54.41
  • Date Submitted: 03/11/2017
  • Route: VAVUN L730 KOSEX
  • Status: Accepted
Flight Details
Gross Revenue:
(66 load / € 95.00 per unit
€ 6,270.00
Fuel Cost:
(567.898 fuel used @ 0.45 / unit)
€ 255.55

Additional Log Information:

View Log

[14:27] - Flight 1 ATR 72-500 SP-RYD SiouxAir
[14:27] - Flight ASX314X is ready to depart EPSC with a final destination of EPGD.
[14:27] - Parking Brake Applied
[14:27] - Navigation Lights ON
[14:27] - Beacon Light ON
[14:27] - Wing Lights ON
[14:27] - Logo Lights ON
[14:27] - Boarding
[14:27] - ADF1 - 305.0
[14:27] - ADF2 - 397.0
[14:27] - NAV1 - 110.50
[14:27] - NAV2 - 111.65
[14:27] - COM1 - 122.80
[14:27] - COM2 - 132.12
[14:27] - Transponder - 2200
[14:28] - Engine 2 Started
[14:29] - Engine 1 Started
[14:29] - Flaps to position 1
[14:29] - Parking Brake Released
[14:29] - Taxi Lights ON 3AGL
[14:29] - Flaps to position 2
[14:29] - Taxiing to Runway
[14:30] - Parking Brake Applied
[14:30] - Strobe Lights ON 3AGL
[14:30] - Taxi Lights OFF 3AGL
[14:30] - Landing Lights ON 3AGL
[14:30] - Parking Brake Released
[14:31] - Taking Off with 66 passengers on board
[14:31] - Take off at 111kts, with a pitch of 2deg and 4554lbs of fuel on board
[14:31] - Wind Heading 13 | Wind Speed 5kts | Temperature 6 deg C
[14:31] - METAR Departure: EPSC 111300Z 33009KT 9999 SCT032 07/M00 Q1020

[14:31] - Flaps to position 1 at 236ft and 118kts
[14:31] - Flaps to position 0 at 322ft and 123kts
[14:32] - Gear up at 282AGL
[14:32] - Climbing to TOC
[14:32] - AutoPilot Engaged at 1582AGL
[14:34] - NAV1 - 110.30
[14:34] - NAV2 - 116.10
[14:35] - Landing Lights OFF 10653AGL
[14:38] - TOC reached
[14:38] - Cruise started
[14:38] - ADF1 - 305.1
[14:55] - TOD reached
[14:55] - Descending to destination
[15:10] - Landing Lights ON 9901AGL
[15:12] - Landing Shortly
[15:16] - Gear down at 2451AGL
[15:17] - Flaps to position 1 at 2129ft and 126kts
[15:17] - Flaps to position 2 at 2159ft and 129kts
[15:19] - AutoPilot Disengaged at 1489AGL
[15:20] - Landed at -105fpm. With 3351lbs of fuel onboard and a pitch angle of -1deg.
[15:20] - Wind Heading 339 | Wind Speed 4kts | Temperature 2 deg C
[15:20] - METAR Arrival: EPGD 111400Z 34004KT 9999 SCT004 BKN008 02/01 Q1024

[15:20] - Taxiing to Gate
[15:21] - Taxi Lights ON 3AGL
[15:21] - Landing Lights OFF 3AGL
[15:21] - Strobe Lights OFF 3AGL
[15:22] - Flaps to position 1
[15:22] - Flaps to position 0
[15:22] - Parking Brake Applied
[15:22] - Arrived safely at EPGD. We hope you enjoyed your flight!
[15:22] - Engine 1 Stopped
[15:22] - Engine 2 Stopped
[15:22] - Taxi Lights OFF 3AGL
[15:22] - Flight 1 ATR 72-500 SP-RYD SiouxAir
[15:22] - MaxSim Rate: 1x
[15:22] - SiouxAcars ver: 1.0.1.2

Route Map